createdAt,value
2017-11-05T00:01:11.162Z,11.27
2017-11-05T00:03:44.927Z,9.87
2017-11-05T00:06:18.494Z,11.17
2017-11-05T00:08:52.006Z,10.57
2017-11-05T00:11:26.214Z,9.43
2017-11-05T00:14:00.605Z,8.90
2017-11-05T00:16:35.003Z,9.27
2017-11-05T00:19:08.610Z,7.43
2017-11-05T00:21:42.139Z,15.00
2017-11-05T00:24:15.666Z,9.40
2017-11-05T00:26:49.175Z,17.33
2017-11-05T00:29:23.447Z,14.73
2017-11-05T00:31:57.766Z,14.17
2017-11-05T00:34:31.978Z,9.00
2017-11-05T00:37:05.510Z,12.30
2017-11-05T00:39:39.920Z,10.00
2017-11-05T00:42:15.165Z,9.60
2017-11-05T00:44:49.164Z,9.90
2017-11-05T00:47:22.901Z,10.83
2017-11-05T00:49:56.502Z,9.10
2017-11-05T00:52:30.311Z,9.93
2017-11-05T00:55:04.043Z,12.70
2017-11-05T00:57:38.013Z,12.87
2017-11-05T01:00:11.690Z,9.20
2017-11-05T01:02:45.427Z,12.13
2017-11-05T01:05:18.954Z,15.87
2017-11-05T01:07:52.481Z,9.40
2017-11-05T01:10:26.082Z,9.20
2017-11-05T01:12:59.691Z,63.50
2017-11-05T01:15:33.427Z,25.90
2017-11-05T01:18:07.092Z,14.97
2017-11-05T01:20:40.731Z,12.00
2017-11-05T01:23:14.197Z,11.93
2017-11-05T01:25:48.642Z,11.97
2017-11-05T01:28:22.350Z,11.63
2017-11-05T01:30:55.947Z,14.37
2017-11-05T01:33:29.638Z,13.70
2017-11-05T01:36:03.251Z,11.20
2017-11-05T01:38:37.064Z,10.80
2017-11-05T01:41:12.083Z,14.53
2017-11-05T01:43:45.799Z,13.77
2017-11-05T01:46:20.282Z,13.80
2017-11-05T01:48:53.815Z,14.87
2017-11-05T01:51:27.418Z,15.60
2017-11-05T01:54:00.986Z,13.43
2017-11-05T01:56:34.624Z,13.73
2017-11-05T01:59:08.907Z,13.70
2017-11-05T02:01:42.515Z,12.97
2017-11-05T02:04:16.750Z,12.87
2017-11-05T02:06:50.527Z,13.83
2017-11-05T02:09:24.266Z,12.83
2017-11-05T02:11:58.055Z,17.13
2017-11-05T02:14:31.771Z,15.00
2017-11-05T02:17:05.470Z,16.67
2017-11-05T02:19:39.015Z,16.50
2017-11-05T02:22:12.790Z,16.20
2017-11-05T02:24:46.454Z,18.83
2017-11-05T02:27:20.046Z,17.50
2017-11-05T02:29:53.634Z,18.10
2017-11-05T02:32:27.258Z,19.57
2017-11-05T02:35:00.843Z,18.07
2017-11-05T02:37:34.486Z,18.37
2017-11-05T02:40:08.579Z,21.43
2017-11-05T02:42:42.302Z,19.77
2017-11-05T02:45:16.111Z,22.33
2017-11-05T02:47:49.775Z,17.47
2017-11-05T02:50:23.405Z,26.90
2017-11-05T02:52:56.982Z,23.30
2017-11-05T02:55:30.565Z,27.80
2017-11-05T02:58:04.106Z,22.03
2017-11-05T03:00:37.573Z,24.43
2017-11-05T03:03:11.102Z,24.87
2017-11-05T03:05:44.566Z,24.37
2017-11-05T03:08:18.182Z,25.43
2017-11-05T03:10:51.794Z,16.53
2017-11-05T03:13:25.610Z,21.53
2017-11-05T03:16:00.130Z,21.50
2017-11-05T03:18:33.619Z,17.50
2017-11-05T03:21:07.438Z,17.60
2017-11-05T03:23:41.750Z,17.40
2017-11-05T03:26:16.071Z,21.43
2017-11-05T03:28:49.686Z,17.03
2017-11-05T03:31:24.262Z,21.67
2017-11-05T03:33:57.901Z,19.60
2017-11-05T03:36:31.498Z,20.17
2017-11-05T03:39:05.107Z,20.77
2017-11-05T03:41:38.802Z,21.57
2017-11-05T03:44:12.494Z,21.60
2017-11-05T03:46:46.070Z,21.33
2017-11-05T03:49:19.701Z,20.20
2017-11-05T03:51:53.406Z,18.90
2017-11-05T03:54:26.987Z,17.30
2017-11-05T03:57:00.610Z,19.00
2017-11-05T03:59:34.297Z,17.70
2017-11-05T04:02:07.990Z,15.77
2017-11-05T04:04:41.625Z,18.50
2017-11-05T04:07:15.228Z,19.27
2017-11-05T04:09:48.926Z,17.20
2017-11-05T04:12:22.378Z,19.93
2017-11-05T04:14:55.983Z,16.23
2017-11-05T04:17:29.482Z,12.23
2017-11-05T04:20:03.068Z,14.50
2017-11-05T04:22:36.726Z,11.03
2017-11-05T04:25:10.278Z,11.00
2017-11-05T04:27:43.818Z,13.53
2017-11-05T04:30:17.378Z,10.20
2017-11-05T04:32:51.018Z,11.50
2017-11-05T04:35:25.502Z,12.90
2017-11-05T04:37:59.086Z,9.70
2017-11-05T04:40:32.753Z,13.10
2017-11-05T04:43:06.356Z,10.07
2017-11-05T04:45:39.898Z,10.13
2017-11-05T04:48:13.446Z,11.40
2017-11-05T04:50:47.044Z,8.50
2017-11-05T04:53:21.542Z,8.73
2017-11-05T04:55:56.090Z,10.20
2017-11-05T04:58:29.563Z,8.90
2017-11-05T05:01:03.157Z,10.30
2017-11-05T05:03:36.890Z,9.80
2017-11-05T05:06:10.559Z,11.60
2017-11-05T05:08:44.105Z,12.87
2017-11-05T05:11:17.590Z,9.90
2017-11-05T05:13:51.398Z,8.10
2017-11-05T05:16:25.918Z,7.83
2017-11-05T05:18:59.487Z,8.37
2017-11-05T05:21:33.224Z,8.60
2017-11-05T05:24:07.509Z,8.87
2017-11-05T05:26:41.110Z,10.60
2017-11-05T05:29:14.598Z,8.20
2017-11-05T05:31:48.086Z,6.50
2017-11-05T05:34:21.709Z,6.80
2017-11-05T05:36:55.294Z,8.93
2017-11-05T05:39:28.937Z,9.30
2017-11-05T05:42:02.522Z,9.23
2017-11-05T05:44:37.047Z,8.90
2017-11-05T05:47:10.662Z,8.37
2017-11-05T05:49:44.366Z,7.03
2017-11-05T05:52:17.870Z,10.67
2017-11-05T05:54:51.581Z,7.90
2017-11-05T05:57:25.180Z,9.13
2017-11-05T05:59:58.770Z,11.50
2017-11-05T06:02:33.315Z,10.40
2017-11-05T06:05:07.782Z,8.10
2017-11-05T06:07:41.522Z,9.70
2017-11-05T06:10:16.014Z,8.60
2017-11-05T06:12:49.642Z,6.70
2017-11-05T06:15:24.162Z,7.90
2017-11-05T06:17:57.866Z,8.73
2017-11-05T06:20:31.679Z,8.90
2017-11-05T06:23:05.392Z,6.13
2017-11-05T06:25:39.868Z,8.70
2017-11-05T06:28:13.499Z,6.83
2017-11-05T06:30:47.362Z,6.27
2017-11-05T06:33:20.955Z,6.37
2017-11-05T06:35:54.667Z,8.37
2017-11-05T06:38:28.314Z,4.83
2017-11-05T06:41:01.925Z,5.97
2017-11-05T06:43:36.337Z,6.90
2017-11-05T06:46:09.938Z,8.37
2017-11-05T06:48:44.462Z,3.90
2017-11-05T06:51:18.779Z,4.97
2017-11-05T06:53:52.325Z,5.40
2017-11-05T06:56:26.183Z,4.27
2017-11-05T06:58:59.685Z,4.90
2017-11-05T07:01:33.170Z,4.90
2017-11-05T07:04:06.882Z,3.50
2017-11-05T07:06:41.407Z,5.20
2017-11-05T07:09:15.007Z,5.67
2017-11-05T07:11:48.514Z,4.40
2017-11-05T07:14:22.210Z,4.03
2017-11-05T07:16:55.914Z,4.03
2017-11-05T07:19:29.514Z,3.60
2017-11-05T07:22:03.070Z,4.10
2017-11-05T07:24:36.709Z,3.87
2017-11-05T07:27:10.310Z,4.60
2017-11-05T07:29:43.906Z,3.03
2017-11-05T07:32:18.202Z,3.90
2017-11-05T07:34:51.830Z,3.43
2017-11-05T07:37:25.399Z,4.57
2017-11-05T07:39:59.029Z,4.17
2017-11-05T07:42:32.481Z,4.00
2017-11-05T07:45:06.341Z,3.53
2017-11-05T07:47:40.762Z,4.10
2017-11-05T07:50:14.357Z,5.87
2017-11-05T07:52:48.062Z,2.90
2017-11-05T07:55:21.762Z,4.90
2017-11-05T07:57:55.432Z,2.80
2017-11-05T08:00:29.018Z,8.80
2017-11-05T08:03:02.878Z,4.50
2017-11-05T08:05:36.349Z,3.47
2017-11-05T08:08:09.978Z,3.00
2017-11-05T08:10:43.502Z,3.83
2017-11-05T08:13:17.173Z,3.80
2017-11-05T08:15:50.987Z,3.83
2017-11-05T08:18:24.790Z,3.20
2017-11-05T08:20:58.386Z,3.33
2017-11-05T08:23:31.890Z,6.07
2017-11-05T08:26:05.601Z,3.90
2017-11-05T08:28:39.306Z,2.83
2017-11-05T08:31:12.926Z,3.20
2017-11-05T08:33:47.395Z,4.83
2017-11-05T08:36:21.542Z,1.47
2017-11-05T08:38:55.697Z,1.17
2017-11-05T08:41:29.327Z,2.10
2017-11-05T08:44:02.918Z,1.00
2017-11-05T08:46:36.458Z,1.57
2017-11-05T08:49:10.146Z,1.33
2017-11-05T08:51:44.461Z,0.90
2017-11-05T08:54:18.034Z,0.87
2017-11-05T08:56:51.994Z,0.90
2017-11-05T08:59:25.514Z,1.00
2017-11-05T09:01:58.974Z,2.60
2017-11-05T09:04:33.258Z,1.20
2017-11-05T09:07:06.778Z,1.00
2017-11-05T09:09:40.321Z,0.90
2017-11-05T09:12:13.766Z,0.80
2017-11-05T09:14:47.286Z,0.90
2017-11-05T09:17:21.554Z,0.90
2017-11-05T09:19:55.067Z,1.30
2017-11-05T09:22:28.573Z,0.90
2017-11-05T09:25:02.098Z,1.33
2017-11-05T09:27:36.375Z,1.93
2017-11-05T09:30:09.950Z,1.40
2017-11-05T09:32:43.595Z,0.80
2017-11-05T09:35:17.810Z,2.13
2017-11-05T09:37:52.017Z,0.80
2017-11-05T09:40:26.434Z,0.90
2017-11-05T09:42:59.963Z,2.20
2017-11-05T09:45:33.595Z,0.70
2017-11-05T09:48:07.263Z,0.80
2017-11-05T09:50:40.850Z,1.00
2017-11-05T09:53:14.369Z,1.23
2017-11-05T09:55:47.806Z,1.10
2017-11-05T09:58:21.451Z,0.83
2017-11-05T10:00:55.858Z,0.90
2017-11-05T10:03:29.399Z,1.00
2017-11-05T10:06:03.657Z,0.73
2017-11-05T10:08:37.174Z,1.00
2017-11-05T10:11:11.370Z,1.00
2017-11-05T10:13:44.874Z,1.13
2017-11-05T10:16:19.312Z,1.40
2017-11-05T10:18:52.836Z,1.03
2017-11-05T10:21:26.465Z,0.80
2017-11-05T10:23:59.990Z,1.00
2017-11-05T10:26:33.426Z,1.37
2017-11-05T10:29:07.711Z,0.93
2017-11-05T10:31:41.930Z,0.90
2017-11-05T10:34:15.454Z,0.90
2017-11-05T10:36:49.861Z,1.00
2017-11-05T10:39:23.382Z,1.00
2017-11-05T10:41:56.822Z,1.00
2017-11-05T10:44:30.365Z,0.80
2017-11-05T10:47:03.884Z,1.10
2017-11-05T10:49:37.526Z,1.00
2017-11-05T10:52:11.071Z,1.00
2017-11-05T10:54:44.506Z,0.80
2017-11-05T10:57:18.151Z,0.90
2017-11-05T10:59:52.363Z,1.10
2017-11-05T11:02:26.578Z,1.43
2017-11-05T11:05:00.122Z,1.57
2017-11-05T11:07:33.630Z,1.03
2017-11-05T11:10:07.150Z,1.10
2017-11-05T11:12:40.663Z,0.83
2017-11-05T11:15:14.286Z,0.90
2017-11-05T11:17:47.795Z,0.80
2017-11-05T11:20:22.086Z,1.07
2017-11-05T11:22:56.290Z,1.00
2017-11-05T11:25:29.874Z,1.17
2017-11-05T11:28:03.519Z,1.70
2017-11-05T11:30:37.029Z,1.10
2017-11-05T11:33:10.471Z,0.90
2017-11-05T11:35:43.919Z,1.00
2017-11-05T11:38:17.440Z,2.00
2017-11-05T11:40:51.706Z,1.20
2017-11-05T11:43:26.127Z,0.80
2017-11-05T11:45:59.650Z,1.10
2017-11-05T11:48:33.088Z,1.10
2017-11-05T11:51:06.605Z,2.40
2017-11-05T11:53:40.047Z,6.60
2017-11-05T11:56:13.698Z,3.03
2017-11-05T11:58:47.198Z,1.37
2017-11-05T12:01:20.851Z,1.00
2017-11-05T12:03:54.302Z,1.67
2017-11-05T12:06:27.949Z,1.90
2017-11-05T12:09:01.515Z,1.23
2017-11-05T12:11:35.746Z,1.00
2017-11-05T12:14:09.294Z,1.60
2017-11-05T12:16:42.942Z,1.50
2017-11-05T12:19:16.502Z,1.60
2017-11-05T12:21:49.950Z,1.97
2017-11-05T12:24:24.163Z,4.83
2017-11-05T12:26:58.370Z,1.13
2017-11-05T12:29:31.886Z,1.37
2017-11-05T12:32:05.531Z,2.23
2017-11-05T12:34:39.203Z,1.30
2017-11-05T12:37:12.638Z,0.93
2017-11-05T12:39:46.157Z,1.20
2017-11-05T12:42:19.598Z,1.83
2017-11-05T12:44:53.881Z,1.77
2017-11-05T12:47:28.293Z,1.43
2017-11-05T12:50:02.014Z,1.33
2017-11-05T12:52:35.535Z,1.20
2017-11-05T12:55:09.194Z,2.00
2017-11-05T12:57:42.723Z,2.50
2017-11-05T13:00:16.945Z,1.63
2017-11-05T13:02:51.158Z,3.60
2017-11-05T13:05:24.606Z,7.43
2017-11-05T13:07:58.111Z,4.67
2017-11-05T13:10:31.754Z,2.00
2017-11-05T13:13:05.191Z,1.90
2017-11-05T13:15:38.755Z,2.80
2017-11-05T13:18:12.194Z,1.50
2017-11-05T13:20:45.850Z,1.90
2017-11-05T13:23:20.246Z,1.50
2017-11-05T13:25:53.774Z,1.87
2017-11-05T13:28:27.237Z,3.43
2017-11-05T13:31:00.831Z,3.50
2017-11-05T13:33:34.274Z,2.10
2017-11-05T13:36:07.710Z,3.77
2017-11-05T13:38:41.149Z,2.07
2017-11-05T13:41:15.571Z,3.43
2017-11-05T13:43:49.774Z,1.63
2017-11-05T13:46:23.292Z,2.20
2017-11-05T13:48:57.679Z,3.53
2017-11-05T13:51:31.272Z,2.60
2017-11-05T13:54:05.613Z,13.67
2017-11-05T13:56:39.153Z,22.73
2017-11-05T13:59:12.682Z,16.70
2017-11-05T14:01:46.208Z,4.73
2017-11-05T14:04:19.653Z,2.70
2017-11-05T14:06:53.287Z,2.50
2017-11-05T14:09:26.797Z,2.87
2017-11-05T14:12:00.434Z,5.07
2017-11-05T14:14:33.882Z,4.47
2017-11-05T14:17:07.395Z,4.20
2017-11-05T14:19:40.905Z,5.20
2017-11-05T14:22:14.444Z,3.20
2017-11-05T14:24:48.122Z,1.53
2017-11-05T14:27:21.650Z,2.93
2017-11-05T14:29:55.921Z,4.30
2017-11-05T14:32:29.446Z,5.80
2017-11-05T14:35:03.846Z,6.50
2017-11-05T14:37:37.382Z,9.47
2017-11-05T14:40:11.650Z,4.60
2017-11-05T14:42:45.164Z,3.90
2017-11-05T14:45:18.677Z,5.57
2017-11-05T14:47:52.120Z,6.23
2017-11-05T14:50:25.558Z,4.73
2017-11-05T14:53:00.118Z,6.90
2017-11-05T14:55:33.711Z,5.93
2017-11-05T14:58:07.255Z,4.43
2017-11-05T15:00:41.474Z,3.03
2017-11-05T15:03:15.011Z,4.03
2017-11-05T15:05:48.521Z,9.57
2017-11-05T15:08:22.170Z,10.70
2017-11-05T15:10:55.678Z,4.90
2017-11-05T15:13:29.270Z,7.50
2017-11-05T15:16:02.811Z,3.53
2017-11-05T15:18:36.453Z,3.93
2017-11-05T15:21:10.099Z,7.93
2017-11-05T15:23:44.306Z,7.10
2017-11-05T15:26:17.822Z,7.33
2017-11-05T15:28:51.462Z,5.20
2017-11-05T15:31:25.833Z,11.83
2017-11-05T15:34:00.043Z,12.70
2017-11-05T15:36:34.366Z,13.53
2017-11-05T15:39:08.566Z,5.87
2017-11-05T15:41:42.890Z,6.63
2017-11-05T15:44:17.099Z,9.37
2017-11-05T15:46:50.611Z,9.77
2017-11-05T15:49:24.910Z,4.33
2017-11-05T15:51:58.443Z,4.30
2017-11-05T15:54:31.951Z,5.63
2017-11-05T15:57:05.426Z,7.37
2017-11-05T15:59:38.955Z,10.90
2017-11-05T16:02:12.476Z,5.53
2017-11-05T16:04:46.119Z,7.60
2017-11-05T16:07:20.321Z,5.97
2017-11-05T16:09:53.841Z,15.60
2017-11-05T16:12:27.389Z,22.50
2017-11-05T16:15:00.939Z,20.73
2017-11-05T16:17:34.445Z,21.10
2017-11-05T16:20:07.979Z,14.10
2017-11-05T16:22:41.426Z,9.37
2017-11-05T16:25:15.835Z,9.80
2017-11-05T16:27:49.367Z,7.80
2017-11-05T16:30:22.878Z,7.13
2017-11-05T16:32:57.163Z,9.43
2017-11-05T16:35:31.370Z,7.23
2017-11-05T16:38:05.699Z,19.73
2017-11-05T16:40:39.899Z,7.57
2017-11-05T16:43:13.411Z,9.03
2017-11-05T16:45:46.914Z,6.67
2017-11-05T16:48:20.591Z,5.93
2017-11-05T16:50:54.123Z,7.93
2017-11-05T16:53:28.409Z,5.43
2017-11-05T16:56:01.930Z,8.53
2017-11-05T16:58:35.559Z,10.80
2017-11-05T17:01:09.826Z,8.90
2017-11-05T17:03:44.150Z,6.77
2017-11-05T17:06:17.670Z,9.17
2017-11-05T17:08:51.198Z,12.03
2017-11-05T17:11:24.778Z,21.93
2017-11-05T17:13:59.070Z,10.90
2017-11-05T17:16:33.270Z,9.17
2017-11-05T17:19:06.778Z,7.83
2017-11-05T17:21:40.423Z,14.90
2017-11-05T17:24:14.068Z,10.43
2017-11-05T17:26:47.603Z,5.53
2017-11-05T17:29:22.023Z,5.90
2017-11-05T17:31:55.482Z,4.40
2017-11-05T17:34:28.917Z,5.60
2017-11-05T17:37:03.206Z,2.50
2017-11-05T17:39:36.731Z,4.27
2017-11-05T17:42:11.039Z,4.83
2017-11-05T17:44:44.562Z,2.97
2017-11-05T17:47:18.849Z,7.00
2017-11-05T17:49:52.342Z,5.00
2017-11-05T17:52:26.022Z,4.90
2017-11-05T17:54:59.527Z,5.53
2017-11-05T17:57:33.051Z,3.73
2017-11-05T18:00:06.702Z,4.13
2017-11-05T18:02:41.071Z,2.00
2017-11-05T18:05:15.274Z,2.27
2017-11-05T18:07:48.790Z,2.93
2017-11-05T18:10:22.303Z,4.17
2017-11-05T18:12:56.710Z,4.43
2017-11-05T18:15:30.917Z,7.47
2017-11-05T18:18:04.509Z,3.07
2017-11-05T18:20:38.030Z,3.47
2017-11-05T18:23:11.678Z,6.97
2017-11-05T18:25:45.113Z,2.00
2017-11-05T18:28:18.782Z,4.13
2017-11-05T18:30:52.218Z,4.40
2017-11-05T18:33:26.646Z,9.57
2017-11-05T18:36:01.051Z,12.70
2017-11-05T18:38:34.587Z,11.13
2017-11-05T18:41:08.162Z,3.00
2017-11-05T18:43:42.574Z,5.40
2017-11-05T18:46:16.777Z,5.57
2017-11-05T18:48:50.290Z,3.80
2017-11-05T18:51:24.598Z,4.17
2017-11-05T18:53:58.122Z,8.10
2017-11-05T18:56:31.587Z,3.47
2017-11-05T18:59:05.130Z,5.00
2017-11-05T19:01:38.566Z,4.73
2017-11-05T19:04:12.210Z,7.00
2017-11-05T19:06:45.722Z,18.40
2017-11-05T19:09:19.169Z,16.67
2017-11-05T19:11:52.674Z,8.37
2017-11-05T19:14:26.326Z,4.60
2017-11-05T19:17:00.601Z,9.90
2017-11-05T19:19:34.150Z,7.90
2017-11-05T19:22:07.604Z,8.60
2017-11-05T19:24:41.248Z,10.17
2017-11-05T19:27:14.778Z,9.03
2017-11-05T19:29:48.427Z,7.23
2017-11-05T19:32:22.732Z,10.53
2017-11-05T19:34:56.933Z,8.93
2017-11-05T19:37:30.451Z,6.83
2017-11-05T19:40:03.954Z,6.43
2017-11-05T19:42:37.478Z,7.73
2017-11-05T19:45:11.756Z,8.90
2017-11-05T19:47:45.277Z,6.70
2017-11-05T19:50:18.918Z,6.93
2017-11-05T19:52:52.438Z,11.20
2017-11-05T19:55:25.950Z,11.97
2017-11-05T19:57:59.598Z,6.13
2017-11-05T20:00:33.238Z,10.43
2017-11-05T20:03:06.686Z,9.43
2017-11-05T20:05:40.243Z,10.10
2017-11-05T20:08:13.762Z,7.33
2017-11-05T20:10:47.275Z,9.10
2017-11-05T20:13:21.554Z,8.13
2017-11-05T20:15:55.208Z,6.77
2017-11-05T20:18:29.494Z,8.03
2017-11-05T20:21:03.703Z,7.07
2017-11-05T20:23:37.237Z,11.83
2017-11-05T20:26:10.766Z,15.10
2017-11-05T20:28:44.288Z,12.53
2017-11-05T20:31:17.822Z,11.30
2017-11-05T20:33:52.106Z,8.70
2017-11-05T20:36:26.522Z,11.83
2017-11-05T20:39:00.182Z,12.03
2017-11-05T20:41:34.462Z,7.80
2017-11-05T20:44:07.930Z,7.07
2017-11-05T20:46:41.366Z,8.37
2017-11-05T20:49:15.020Z,9.60
2017-11-05T20:51:48.450Z,8.70
2017-11-05T20:54:21.978Z,13.73
2017-11-05T20:56:55.558Z,13.00
2017-11-05T20:59:29.979Z,11.93
2017-11-05T21:02:04.178Z,17.10
2017-11-05T21:04:37.810Z,8.60
2017-11-05T21:07:11.251Z,9.50
2017-11-05T21:09:44.892Z,16.63
2017-11-05T21:12:18.411Z,11.03
2017-11-05T21:14:51.850Z,10.10
2017-11-05T21:17:25.394Z,14.23
2017-11-05T21:19:59.795Z,9.50
2017-11-05T21:22:33.318Z,8.33
2017-11-05T21:25:07.606Z,8.43
2017-11-05T21:27:41.078Z,14.07
2017-11-05T21:30:14.522Z,10.77
2017-11-05T21:32:48.038Z,9.97
2017-11-05T21:35:22.310Z,7.40
2017-11-05T21:37:56.629Z,7.83
2017-11-05T21:40:30.157Z,10.00
2017-11-05T21:43:03.678Z,8.43
2017-11-05T21:45:37.314Z,7.73
2017-11-05T21:48:10.985Z,11.60
2017-11-05T21:50:44.413Z,9.40
2017-11-05T21:53:18.074Z,7.73
2017-11-05T21:55:51.576Z,7.07
2017-11-05T21:58:25.871Z,12.27
2017-11-05T22:00:59.330Z,13.10
2017-11-05T22:03:32.854Z,13.20
2017-11-05T22:06:06.510Z,13.30
2017-11-05T22:08:40.166Z,10.10
2017-11-05T22:11:13.679Z,9.33
2017-11-05T22:13:47.123Z,10.43
2017-11-05T22:16:20.758Z,11.67
2017-11-05T22:18:54.278Z,20.80
2017-11-05T22:21:27.794Z,12.20
2017-11-05T22:24:01.430Z,15.63
2017-11-05T22:26:34.941Z,12.00
2017-11-05T22:29:08.488Z,7.00
2017-11-05T22:31:42.770Z,10.40
2017-11-05T22:34:16.290Z,7.03
2017-11-05T22:36:49.730Z,10.83
2017-11-05T22:39:23.254Z,20.07
2017-11-05T22:41:56.890Z,13.50
2017-11-05T22:44:31.189Z,13.77
2017-11-05T22:47:05.391Z,13.53
2017-11-05T22:49:38.918Z,7.47
2017-11-05T22:52:13.217Z,12.07
2017-11-05T22:54:46.749Z,7.37
2017-11-05T22:57:20.186Z,7.27
2017-11-05T22:59:53.778Z,8.63
2017-11-05T23:02:27.219Z,10.40
2017-11-05T23:05:00.749Z,11.60
2017-11-05T23:07:35.009Z,9.30
2017-11-05T23:10:08.543Z,11.90
2017-11-05T23:12:42.130Z,13.77
2017-11-05T23:15:16.583Z,9.97
2017-11-05T23:17:50.846Z,8.87
2017-11-05T23:20:24.375Z,17.50
2017-11-05T23:22:57.894Z,15.10
2017-11-05T23:25:31.450Z,27.40
2017-11-05T23:28:04.983Z,14.27
2017-11-05T23:30:38.497Z,14.33
2017-11-05T23:33:12.794Z,10.70
2017-11-05T23:35:46.302Z,10.30
2017-11-05T23:38:19.848Z,9.50
2017-11-05T23:40:53.363Z,9.30
2017-11-05T23:43:27.795Z,11.87
2017-11-05T23:46:02.022Z,7.13
2017-11-05T23:48:36.218Z,10.73
2017-11-05T23:51:09.845Z,14.00
2017-11-05T23:53:43.457Z,12.33
2017-11-05T23:56:17.849Z,8.10
2017-11-05T23:58:51.881Z,34.47
